Mountain, North Dakota
Current Conditions -  °F | °C
As of 7:15 PM on Tuesday 21 Oct 2014 (Local Time) from K2C8 Reporting Station
Clear Clear  
Wind Chill: 59°   Ceiling: Unl
Heat Index: 59°   Visibility: 10mi
Dew Point: 41°   Wind: 17mph
Humidity: 51%   Direction: 150°SSE
Pressure: 29.81"   Gusts: 25mph
Location:  48.69°N, 97.87°W
Report Text: K2C8 220015Z AUTO 15015G22KT 10SM CLR 15/05 A2981 RMK AO2
Loading
Personal Weather Stations






























Interactive Weather Map
Tropical Storm Tracking
New forecast layout! Learn more

10-Day Weather Forecast

Advertisements
Track Severe Weather on mobile